sensor_id;sensor_type;location;lat;lon;timestamp;pressure;altitude;pressure_sealevel;temperature;humidity
38253;BME280;24785;52.372;20.672;2023-04-09T00:02:02;101375.81;;;6.63;100.00
38253;BME280;24785;52.372;20.672;2023-04-09T00:12:03;101352.66;;;6.64;100.00
38253;BME280;24785;52.372;20.672;2023-04-09T00:22:03;101345.50;;;6.65;100.00
38253;BME280;24785;52.372;20.672;2023-04-09T00:32:04;101336.28;;;6.60;100.00
38253;BME280;24785;52.372;20.672;2023-04-09T00:42:05;101334.03;;;6.64;100.00
38253;BME280;24785;52.372;20.672;2023-04-09T00:52:06;101325.63;;;6.60;100.00
38253;BME280;24785;52.372;20.672;2023-04-09T01:02:07;101309.16;;;6.52;100.00
38253;BME280;24785;52.372;20.672;2023-04-09T01:32:57;101312.13;;;6.44;100.00
38253;BME280;24785;52.372;20.672;2023-04-09T01:43:00;101305.19;;;6.43;100.00
38253;BME280;24785;52.372;20.672;2023-04-09T01:53:02;101298.31;;;6.35;100.00
38253;BME280;24785;52.372;20.672;2023-04-09T02:03:22;101301.00;;;6.35;100.00
38253;BME280;24785;52.372;20.672;2023-04-09T02:13:24;101294.50;;;6.31;100.00
38253;BME280;24785;52.372;20.672;2023-04-09T02:23:26;101305.63;;;6.40;100.00
38253;BME280;24785;52.372;20.672;2023-04-09T02:33:27;101305.63;;;6.40;100.00
38253;BME280;24785;52.372;20.672;2023-04-09T02:43:28;101310.50;;;6.43;100.00
38253;BME280;24785;52.372;20.672;2023-04-09T02:53:29;101311.19;;;6.38;100.00
38253;BME280;24785;52.372;20.672;2023-04-09T03:03:30;101300.53;;;6.38;100.00
38253;BME280;24785;52.372;20.672;2023-04-09T03:13:31;101301.31;;;6.27;100.00
38253;BME280;24785;52.372;20.672;2023-04-09T03:23:31;101304.78;;;6.27;100.00
38253;BME280;24785;52.372;20.672;2023-04-09T03:33:34;101296.50;;;6.17;100.00
38253;BME280;24785;52.372;20.672;2023-04-09T03:43:35;101306.09;;;6.00;100.00
38253;BME280;24785;52.372;20.672;2023-04-09T03:53:36;101294.13;;;6.09;100.00
38253;BME280;24785;52.372;20.672;2023-04-09T04:03:37;101292.50;;;5.90;100.00
38253;BME280;24785;52.372;20.672;2023-04-09T04:13:37;101291.69;;;5.64;100.00
38253;BME280;24785;52.372;20.672;2023-04-09T04:23:38;101294.03;;;5.54;100.00
38253;BME280;24785;52.372;20.672;2023-04-09T04:33:40;101274.47;;;5.67;100.00
38253;BME280;24785;52.372;20.672;2023-04-09T04:43:41;101288.06;;;5.59;100.00
38253;BME280;24785;52.372;20.672;2023-04-09T04:53:42;101298.09;;;5.82;100.00
38253;BME280;24785;52.372;20.672;2023-04-09T05:03:43;101296.56;;;6.11;100.00
38253;BME280;24785;52.372;20.672;2023-04-09T05:13:44;101299.13;;;6.36;100.00
38253;BME280;24785;52.372;20.672;2023-04-09T05:23:45;101314.41;;;6.58;100.00
38253;BME280;24785;52.372;20.672;2023-04-09T05:33:46;101325.06;;;6.88;100.00
38253;BME280;24785;52.372;20.672;2023-04-09T05:43:46;101332.94;;;7.25;100.00
38253;BME280;24785;52.372;20.672;2023-04-09T05:53:47;101340.50;;;7.51;100.00
38253;BME280;24785;52.372;20.672;2023-04-09T06:03:48;101374.16;;;7.87;100.00
38253;BME280;24785;52.372;20.672;2023-04-09T06:13:50;101391.34;;;8.15;100.00
38253;BME280;24785;52.372;20.672;2023-04-09T06:23:51;101425.69;;;8.46;100.00
38253;BME280;24785;52.372;20.672;2023-04-09T06:33:52;101454.50;;;8.56;100.00
38253;BME280;24785;52.372;20.672;2023-04-09T06:43:53;101472.31;;;8.91;100.00
38253;BME280;24785;52.372;20.672;2023-04-09T06:53:54;101490.31;;;9.35;100.00
38253;BME280;24785;52.372;20.672;2023-04-09T07:03:55;101511.50;;;10.16;100.00
38253;BME280;24785;52.372;20.672;2023-04-09T07:13:56;101531.16;;;9.59;100.00
38253;BME280;24785;52.372;20.672;2023-04-09T07:23:56;101523.44;;;9.46;100.00
38253;BME280;24785;52.372;20.672;2023-04-09T07:33:57;101527.94;;;9.74;100.00
38253;BME280;24785;52.372;20.672;2023-04-09T07:43:58;101535.25;;;10.24;100.00
38253;BME280;24785;52.372;20.672;2023-04-09T07:54:00;101540.91;;;10.61;100.00
38253;BME280;24785;52.372;20.672;2023-04-09T08:04:01;101528.91;;;11.51;100.00
38253;BME280;24785;52.372;20.672;2023-04-09T08:14:02;101536.38;;;11.76;100.00
38253;BME280;24785;52.372;20.672;2023-04-09T08:24:04;101542.44;;;12.20;100.00
38253;BME280;24785;52.372;20.672;2023-04-09T08:34:06;101530.88;;;12.51;100.00
38253;BME280;24785;52.372;20.672;2023-04-09T08:44:07;101535.81;;;12.70;99.60
38253;BME280;24785;52.372;20.672;2023-04-09T08:54:08;101528.34;;;13.39;93.45
38253;BME280;24785;52.372;20.672;2023-04-09T09:04:09;101524.88;;;12.07;95.81
38253;BME280;24785;52.372;20.672;2023-04-09T09:14:12;101538.00;;;12.31;94.28
38253;BME280;24785;52.372;20.672;2023-04-09T09:24:16;101543.50;;;12.98;95.53
38253;BME280;24785;52.372;20.672;2023-04-09T09:34:19;101545.72;;;12.64;87.44
38253;BME280;24785;52.372;20.672;2023-04-09T09:44:31;101547.75;;;12.42;94.15
38253;BME280;24785;52.372;20.672;2023-04-09T09:54:39;101549.16;;;12.54;91.20
38253;BME280;24785;52.372;20.672;2023-04-09T10:04:40;101541.59;;;12.46;92.50
38253;BME280;24785;52.372;20.672;2023-04-09T10:14:43;101546.50;;;12.22;89.70
38253;BME280;24785;52.372;20.672;2023-04-09T10:24:45;101534.94;;;12.59;89.83
38253;BME280;24785;52.372;20.672;2023-04-09T10:34:46;101539.78;;;13.14;86.03
38253;BME280;24785;52.372;20.672;2023-04-09T10:45:21;101531.63;;;13.67;81.64
38253;BME280;24785;52.372;20.672;2023-04-09T10:55:36;101526.56;;;13.96;77.17
38253;BME280;24785;52.372;20.672;2023-04-09T11:05:38;101528.97;;;13.97;76.39
38253;BME280;24785;52.372;20.672;2023-04-09T11:15:40;101522.53;;;13.93;74.95
38253;BME280;24785;52.372;20.672;2023-04-09T11:25:41;101525.22;;;14.08;74.37
38253;BME280;24785;52.372;20.672;2023-04-09T11:35:42;101520.91;;;13.92;74.63
38253;BME280;24785;52.372;20.672;2023-04-09T11:45:43;101514.97;;;14.31;76.93
38253;BME280;24785;52.372;20.672;2023-04-09T11:55:51;101507.66;;;14.67;71.50
38253;BME280;24785;52.372;20.672;2023-04-09T12:05:53;101499.84;;;13.59;75.19
38253;BME280;24785;52.372;20.672;2023-04-09T12:15:53;101492.31;;;14.37;74.75
38253;BME280;24785;52.372;20.672;2023-04-09T12:25:55;101492.88;;;13.83;77.77
38253;BME280;24785;52.372;20.672;2023-04-09T12:36:00;101484.75;;;14.18;75.27
38253;BME280;24785;52.372;20.672;2023-04-09T12:46:01;101469.81;;;14.82;70.36
38253;BME280;24785;52.372;20.672;2023-04-09T12:56:02;101448.50;;;15.35;66.95
38253;BME280;24785;52.372;20.672;2023-04-09T13:06:04;101458.88;;;15.12;68.43
38253;BME280;24785;52.372;20.672;2023-04-09T13:16:05;101446.25;;;14.03;65.62
38253;BME280;24785;52.372;20.672;2023-04-09T13:26:06;101446.25;;;13.93;70.68
38253;BME280;24785;52.372;20.672;2023-04-09T13:36:07;101435.16;;;14.45;64.31
38253;BME280;24785;52.372;20.672;2023-04-09T13:46:08;101414.00;;;14.77;60.56
38253;BME280;24785;52.372;20.672;2023-04-09T13:56:09;101409.03;;;14.95;61.88
38253;BME280;24785;52.372;20.672;2023-04-09T14:06:10;101417.53;;;15.22;62.77
38253;BME280;24785;52.372;20.672;2023-04-09T14:16:13;101420.81;;;15.09;64.92
38253;BME280;24785;52.372;20.672;2023-04-09T14:26:14;101423.56;;;15.04;65.49
38253;BME280;24785;52.372;20.672;2023-04-09T14:36:16;101418.13;;;15.09;65.15
38253;BME280;24785;52.372;20.672;2023-04-09T14:46:17;101435.09;;;14.60;73.82
38253;BME280;24785;52.372;20.672;2023-04-09T14:56:19;101420.34;;;14.27;77.12
38253;BME280;24785;52.372;20.672;2023-04-09T15:06:21;101435.72;;;14.06;79.84
38253;BME280;24785;52.372;20.672;2023-04-09T15:16:23;101421.72;;;14.04;82.51
38253;BME280;24785;52.372;20.672;2023-04-09T15:26:25;101430.34;;;13.96;82.59
38253;BME280;24785;52.372;20.672;2023-04-09T15:36:27;101426.06;;;13.90;78.89
38253;BME280;24785;52.372;20.672;2023-04-09T15:46:29;101431.44;;;13.54;79.18
38253;BME280;24785;52.372;20.672;2023-04-09T15:56:30;101432.25;;;13.50;80.11
38253;BME280;24785;52.372;20.672;2023-04-09T16:06:31;101431.31;;;12.99;83.48
38253;BME280;24785;52.372;20.672;2023-04-09T16:16:32;101443.69;;;13.05;82.46
38253;BME280;24785;52.372;20.672;2023-04-09T16:26:32;101440.84;;;12.64;83.01
38253;BME280;24785;52.372;20.672;2023-04-09T16:36:33;101453.28;;;11.86;90.38
38253;BME280;24785;52.372;20.672;2023-04-09T16:46:36;101453.63;;;11.14;100.00
38253;BME280;24785;52.372;20.672;2023-04-09T16:56:37;101460.56;;;11.10;100.00
38253;BME280;24785;52.372;20.672;2023-04-09T17:06:38;101476.59;;;11.04;100.00
38253;BME280;24785;52.372;20.672;2023-04-09T17:16:39;101485.31;;;10.73;100.00
38253;BME280;24785;52.372;20.672;2023-04-09T17:26:40;101483.44;;;10.52;100.00
38253;BME280;24785;52.372;20.672;2023-04-09T17:36:41;101504.53;;;10.31;100.00
38253;BME280;24785;52.372;20.672;2023-04-09T17:46:42;101504.28;;;10.16;100.00
38253;BME280;24785;52.372;20.672;2023-04-09T17:56:43;101530.34;;;10.37;100.00
38253;BME280;24785;52.372;20.672;2023-04-09T18:06:44;101534.03;;;10.48;100.00
38253;BME280;24785;52.372;20.672;2023-04-09T18:16:45;101532.97;;;10.32;100.00
38253;BME280;24785;52.372;20.672;2023-04-09T18:26:46;101530.50;;;10.14;100.00
38253;BME280;24785;52.372;20.672;2023-04-09T18:36:47;101544.41;;;9.83;100.00
38253;BME280;24785;52.372;20.672;2023-04-09T18:46:48;101544.22;;;9.56;100.00
38253;BME280;24785;52.372;20.672;2023-04-09T18:56:49;101534.50;;;9.38;100.00
38253;BME280;24785;52.372;20.672;2023-04-09T19:06:50;101539.00;;;9.49;100.00
38253;BME280;24785;52.372;20.672;2023-04-09T19:16:51;101530.28;;;9.42;100.00
38253;BME280;24785;52.372;20.672;2023-04-09T19:26:53;101547.28;;;9.36;100.00
38253;BME280;24785;52.372;20.672;2023-04-09T19:36:54;101542.66;;;9.31;100.00
38253;BME280;24785;52.372;20.672;2023-04-09T19:46:55;101558.16;;;9.18;100.00
38253;BME280;24785;52.372;20.672;2023-04-09T19:56:56;101547.75;;;9.04;100.00
38253;BME280;24785;52.372;20.672;2023-04-09T20:06:57;101544.72;;;8.89;100.00
38253;BME280;24785;52.372;20.672;2023-04-09T20:16:58;101525.59;;;8.57;100.00
38253;BME280;24785;52.372;20.672;2023-04-09T20:26:59;101530.53;;;8.30;100.00
38253;BME280;24785;52.372;20.672;2023-04-09T20:37:00;101519.97;;;8.12;100.00
38253;BME280;24785;52.372;20.672;2023-04-09T20:47:01;101522.34;;;7.90;100.00
38253;BME280;24785;52.372;20.672;2023-04-09T20:57:02;101515.66;;;7.57;100.00
38253;BME280;24785;52.372;20.672;2023-04-09T21:07:05;101502.34;;;7.39;100.00
38253;BME280;24785;52.372;20.672;2023-04-09T21:17:06;101496.66;;;7.36;100.00
38253;BME280;24785;52.372;20.672;2023-04-09T21:27:07;101486.44;;;7.33;100.00
38253;BME280;24785;52.372;20.672;2023-04-09T21:37:07;101482.56;;;7.17;100.00
38253;BME280;24785;52.372;20.672;2023-04-09T21:47:08;101485.94;;;7.06;100.00
38253;BME280;24785;52.372;20.672;2023-04-09T21:57:11;101495.56;;;7.07;100.00
38253;BME280;24785;52.372;20.672;2023-04-09T22:07:12;101493.41;;;6.60;100.00
38253;BME280;24785;52.372;20.672;2023-04-09T22:17:13;101492.50;;;6.30;100.00
38253;BME280;24785;52.372;20.672;2023-04-09T22:27:13;101487.91;;;6.19;100.00
38253;BME280;24785;52.372;20.672;2023-04-09T22:37:14;101482.19;;;5.90;100.00
38253;BME280;24785;52.372;20.672;2023-04-09T22:47:16;101486.59;;;6.03;100.00
38253;BME280;24785;52.372;20.672;2023-04-09T22:57:17;101502.91;;;5.44;100.00
38253;BME280;24785;52.372;20.672;2023-04-09T23:07:18;101495.53;;;5.01;100.00
38253;BME280;24785;52.372;20.672;2023-04-09T23:17:19;101487.50;;;5.14;100.00
38253;BME280;24785;52.372;20.672;2023-04-09T23:27:22;101460.66;;;4.91;100.00
38253;BME280;24785;52.372;20.672;2023-04-09T23:37:27;101468.91;;;4.56;100.00
38253;BME280;24785;52.372;20.672;2023-04-09T23:47:29;101462.25;;;4.34;100.00
38253;BME280;24785;52.372;20.672;2023-04-09T23:57:31;101460.63;;;4.06;100.00
